Map

Track Data

SID SEASON NUMBER BASIN SUBBASIN NAME ISO_TIME NATURE LAT LON WMO_WIND WMO_PRES WMO_AGENCY TRACK_TYPE DIST2LAND LANDFALL IFLAG USA_AGENCY USA_ATCF_ID USA_LAT USA_LON USA_RECORD USA_STATUS USA_WIND USA_PRES USA_SSHS USA_R34_NE USA_R34_SE USA_R34_SW USA_R34_NW USA_R50_NE USA_R50_SE USA_R50_SW USA_R50_NW USA_R64_NE USA_R64_SE USA_R64_SW USA_R64_NW USA_POCI USA_ROCI USA_RMW USA_EYE TOKYO_LAT TOKYO_LON TOKYO_GRADE TOKYO_WIND TOKYO_PRES TOKYO_R50_DIR TOKYO_R50_LONG TOKYO_R50_SHORT TOKYO_R30_DIR TOKYO_R30_LONG TOKYO_R30_SHORT TOKYO_LAND CMA_LAT CMA_LON CMA_CAT CMA_WIND CMA_PRES HKO_LAT HKO_LON HKO_CAT HKO_WIND HKO_PRES NEWDELHI_LAT NEWDELHI_LON NEWDELHI_GRADE NEWDELHI_WIND NEWDELHI_PRES NEWDELHI_CI NEWDELHI_DP NEWDELHI_POCI REUNION_LAT REUNION_LON REUNION_TYPE REUNION_WIND REUNION_PRES REUNION_TNUM REUNION_CI REUNION_RMW REUNION_R34_NE REUNION_R34_SE REUNION_R34_SW REUNION_R34_NW REUNION_R50_NE REUNION_R50_SE REUNION_R50_SW REUNION_R50_NW REUNION_R64_NE REUNION_R64_SE REUNION_R64_SW REUNION_R64_NW BOM_LAT BOM_LON BOM_TYPE BOM_WIND BOM_PRES BOM_TNUM BOM_CI BOM_RMW BOM_R34_NE BOM_R34_SE BOM_R34_SW BOM_R34_NW BOM_R50_NE BOM_R50_SE BOM_R50_SW BOM_R50_NW BOM_R64_NE BOM_R64_SE BOM_R64_SW BOM_R64_NW BOM_ROCI BOM_POCI BOM_EYE BOM_POS_METHOD BOM_PRES_METHOD NADI_LAT NADI_LON NADI_CAT NADI_WIND NADI_PRES WELLINGTON_LAT WELLINGTON_LON WELLINGTON_WIND WELLINGTON_PRES DS824_LAT DS824_LON DS824_STAGE DS824_WIND DS824_PRES TD9636_LAT TD9636_LON TD9636_STAGE TD9636_WIND TD9636_PRES TD9635_LAT TD9635_LON TD9635_WIND TD9635_PRES TD9635_ROCI NEUMANN_LAT NEUMANN_LON NEUMANN_CLASS NEUMANN_WIND NEUMANN_PRES MLC_LAT MLC_LON MLC_CLASS MLC_WIND MLC_PRES USA_GUST BOM_GUST BOM_GUST_PER REUNION_GUST REUNION_GUST_PER USA_SEAHGT USA_SEARAD_NE USA_SEARAD_SE USA_SEARAD_SW USA_SEARAD_NW STORM_SPEED STORM_DIR
2022240N26149 2022 53 WP MM HINNAMNOR 2022-08-28 06:00:00 NR 25.8000 149.300 PROVISIONAL 1349 1280 O_____________ tcvitals WP122022 25.8000 149.300 35 1002 0 120 120 65 65 1010 150 20 13 319
2022240N26149 2022 53 WP MM HINNAMNOR 2022-08-28 09:00:00 NR 26.2802 148.836 PROVISIONAL 1274 1209 P_____________ WP122022 26.2802 148.836 37 1000 0 120 120 65 65 1010 150 20 13 315
2022240N26149 2022 53 WP MM HINNAMNOR 2022-08-28 12:00:00 NR 26.7000 148.300 PROVISIONAL 1209 1147 O_____________ tcvitals WP122022 26.7000 148.300 39 999 0 120 120 65 65 1010 150 20 13 304
2022240N26149 2022 53 WP MM HINNAMNOR 2022-08-28 15:00:00 NR 27.0098 147.645 PROVISIONAL 1141 1084 P_____________ WP122022 27.0098 147.645 45 997 0 90 92 55 67 1010 155 22 13 292
2022240N26149 2022 53 WP MM HINNAMNOR 2022-08-28 18:00:00 NR 27.2000 146.900 PROVISIONAL 1084 1037 O_____________ tcvitals WP122022 27.2000 146.900 51 996 0 60 65 45 70 1010 160 25 14 281
2022240N26149 2022 53 WP MM HINNAMNOR 2022-08-28 21:00:00 NR 27.2791 146.152 PROVISIONAL 1037 995 P_____________ WP122022 27.2791 146.152 52 993 0 67 60 42 72 1009 135 22 14 274
2022240N26149 2022 53 WP MM HINNAMNOR 2022-08-29 00:00:00 NR 27.3000 145.300 PROVISIONAL 990 935 O_____________ tcvitals WP122022 27.3000 145.300 54 990 0 75 55 40 75 1008 110 20 17 273
2022240N26149 2022 53 WP MM HINNAMNOR 2022-08-29 03:00:00 NR 27.3653 144.273 PROVISIONAL 935 896 P_____________ WP122022 27.3653 144.273 64 984 1 75 60 47 70 1008 142 15 19 273
2022240N26149 2022 53 WP MM HINNAMNOR 2022-08-29 06:00:00 NR 27.4000 143.200 PROVISIONAL 893 867 O_____________ tcvitals WP122022 27.4000 143.200 74 978 1 75 65 55 65 1008 175 10 18 270
2022240N26149 2022 53 WP MM HINNAMNOR 2022-08-29 09:00:00 NR 27.3714 142.242 PROVISIONAL 864 851 P_____________ WP122022 27.3714 142.242 86 968 2 75 67 50 65 1008 175 8 17 267
2022240N26149 2022 53 WP MM HINNAMNOR 2022-08-29 12:00:00 NR 27.3000 141.300 PROVISIONAL 848 820 O_____________ tcvitals WP122022 27.3000 141.300 99 959 3 75 70 45 65 1008 175 6 17 265
2022240N26149 2022 53 WP MM HINNAMNOR 2022-08-29 15:00:00 NR 27.2146 140.300 PROVISIONAL 815 783 P_____________ WP122022 27.2146 140.300 111 947 3 77 70 55 72 1007 147 5 18 264
2022240N26149 2022 53 WP MM HINNAMNOR 2022-08-29 18:00:00 NR 27.1000 139.300 PROVISIONAL 778 756 O_____________ tcvitals WP122022 27.1000 139.300 124 936 4 80 70 65 80 1006 120 5 18 261
2022240N26149 2022 53 WP MM HINNAMNOR 2022-08-29 21:00:00 NR 26.9416 138.350 PROVISIONAL 763 750 P_____________ WP122022 26.9416 138.350 119 940 4 80 80 62 80 1006 130 5 17 260
2022240N26149 2022 53 WP MM HINNAMNOR 2022-08-30 00:00:00 NR 26.8000 137.400 PROVISIONAL 752 714 O_____________ tcvitals WP122022 26.8000 137.400 115 944 4 80 90 60 80 1006 140 5 18 263
2022240N26149 2022 53 WP MM HINNAMNOR 2022-08-30 03:00:00 NR 26.7423 136.393 PROVISIONAL 714 658 P_____________ WP122022 26.7423 136.393 119 938 4 87 80 67 87 1004 142 5 18 267
2022240N26149 2022 53 WP MM HINNAMNOR 2022-08-30 06:00:00 NR 26.7000 135.400 PROVISIONAL 652 614 O_____________ tcvitals WP122022 26.7000 135.400 124 932 4 95 70 75 95 1003 145 5 17 265
2022240N26149 2022 53 WP MM HINNAMNOR 2022-08-30 09:00:00 NR 26.6068 134.478 PROVISIONAL 614 576 P_____________ WP122022 26.6068 134.478 126 929 4 110 82 90 110 1003 145 5 16 263
2022240N26149 2022 53 WP MM HINNAMNOR 2022-08-30 12:00:00 NR 26.5000 133.600 PROVISIONAL 576 552 O_____________ tcvitals WP122022 26.5000 133.600 128 926 4 126 95 105 126 1003 145 5 16 263
2022240N26149 2022 53 WP MM HINNAMNOR 2022-08-30 15:00:00 NR 26.4145 132.735 PROVISIONAL 549 533 P_____________ WP122022 26.4145 132.735 133 923 4 98 70 77 100 1003 145 5 15 263
2022240N26149 2022 53 WP MM HINNAMNOR 2022-08-30 18:00:00 NR 26.3000 131.900 PROVISIONAL 537 533 O_____________ tcvitals WP122022 26.3000 131.900 138 920 5 70 45 50 75 1003 145 5 15 259
2022240N26149 2022 53 WP MM HINNAMNOR 2022-08-30 21:00:00 NR 26.1223 131.070 PROVISIONAL 548 547 P_____________ WP122022 26.1223 131.070 136 922 4 67 47 52 70 1002 150 5 15 254
2022240N26149 2022 53 WP MM HINNAMNOR 2022-08-31 00:00:00 NR 25.9000 130.300 PROVISIONAL 570 570 O_____________ tcvitals WP122022 25.9000 130.300 134 924 4 65 50 55 65 1002 155 5 14 251
2022240N26149 2022 53 WP MM HINNAMNOR 2022-08-31 03:00:00 NR 25.6644 129.628 PROVISIONAL 601 601 P_____________ WP122022 25.6644 129.628 131 925 4 77 65 67 80 1002 155 5 13 247
2022240N26149 2022 53 WP MM HINNAMNOR 2022-08-31 06:00:00 NR 25.4000 129.000 PROVISIONAL 646 644 O_____________ tcvitals WP122022 25.4000 129.000 128 926 4 90 80 80 95 1002 155 5 13 245
2022240N26149 2022 53 WP MM HINNAMNOR 2022-08-31 09:00:00 NR 25.1223 128.343 PROVISIONAL 634 574 P_____________ WP122022 25.1223 128.343 126 928 4 97 87 90 100 1000 155 5 13 243
2022240N26149 2022 53 WP MM HINNAMNOR 2022-08-31 12:00:00 NR 24.8000 127.700 PROVISIONAL 574 517 O_____________ tcvitals WP122022 24.8000 127.700 124 930 4 105 95 100 105 999 155 5 13 240
2022240N26149 2022 53 WP MM HINNAMNOR 2022-08-31 15:00:00 NR 24.4600 127.055 PROVISIONAL 517 468 P_____________ WP122022 24.4600 127.055 124 930 4 77 85 90 82 999 157 5 14 234
2022240N26149 2022 53 WP MM HINNAMNOR 2022-08-31 18:00:00 NR 24.0000 126.500 PROVISIONAL 468 443 O_____________ tcvitals WP122022 24.0000 126.500 124 931 4 50 75 80 60 999 160 5 15 217
2022240N26149 2022 53 WP MM HINNAMNOR 2022-08-31 21:00:00 NR 23.2998 126.082 PROVISIONAL 447 440 P_____________ WP122022 23.2998 126.082 131 923 4 55 80 85 62 999 162 5 15 205
2022240N26149 2022 53 WP MM HINNAMNOR 2022-09-01 00:00:00 NR 22.6000 125.800 PROVISIONAL 450 439 O_____________ tcvitals WP122022 22.6000 125.800 138 915 5 60 85 90 65 999 165 5 13 201
2022240N26149 2022 53 WP MM HINNAMNOR 2022-09-01 03:00:00 NR 22.1324 125.590 PROVISIONAL 445 438 P_____________ WP122022 22.1324 125.590 136 918 4 60 80 90 77 999 182 5 9 199
2022240N26149 2022 53 WP MM HINNAMNOR 2022-09-01 06:00:00 NR 21.8000 125.500 PROVISIONAL 445 445 O_____________ tcvitals WP122022 21.8000 125.500 134 921 4 60 75 90 90 999 200 5 7 185
2022240N26149 2022 53 WP MM HINNAMNOR 2022-09-01 09:00:00 NR 21.4825 125.535 PROVISIONAL 458 458 P_____________ WP122022 21.4825 125.535 126 928 4 55 75 82 82 999 200 5 5 169
2022240N26149 2022 53 WP MM HINNAMNOR 2022-09-01 12:00:00 NR 21.3000 125.600 PROVISIONAL 473 473 O_____________ tcvitals WP122022 21.3000 125.600 119 935 4 50 75 75 75 999 200 5 2 0
2022240N26149 2022 53 WP MM HINNAMNOR 2022-09-01 15:00:00 NR 21.3050 125.565 PROVISIONAL 473 462 P_____________ WP122022 21.3050 125.565 117 935 4 75 122 110 177 1002 275 5 1 317
2022240N26149 2022 53 WP MM HINNAMNOR 2022-09-01 18:00:00 NR 21.4000 125.500 PROVISIONAL 462 462 O_____________ tcvitals WP122022 21.4000 125.500 115 936 4 100 170 145 280 1005 350 5 1 321
2022240N26149 2022 53 WP MM HINNAMNOR 2022-09-01 21:00:00 NR 21.4200 125.465 PROVISIONAL 462 448 P_____________ WP122022 21.4200 125.465 104 944 3 142 185 167 200 1004 350 5 1 317
2022240N26149 2022 53 WP MM HINNAMNOR 2022-09-02 00:00:00 NR 21.5000 125.400 PROVISIONAL 448 430 O_____________ tcvitals WP122022 21.5000 125.400 93 952 2 185 200 190 120 1004 350 5 4 332
2022240N26149 2022 53 WP MM HINNAMNOR 2022-09-02 03:00:00 NR 21.7425 125.273 PROVISIONAL 430 399 P_____________ WP122022 21.7425 125.273 86 958 2 142 180 175 105 1002 350 9 6 331
2022240N26149 2022 53 WP MM HINNAMNOR 2022-09-02 06:00:00 NR 22.0000 125.100 PROVISIONAL 399 376 O_____________ tcvitals WP122022 22.0000 125.100 80 964 1 100 160 160 90 1001 350 14 5 316
2022240N26149 2022 53 WP MM HINNAMNOR 2022-09-02 09:00:00 NR 22.1226 124.877 PROVISIONAL 376 353 P_____________ WP122022 22.1226 124.877 80 963 1 132 165 162 132 1001 350 14 4 298
2022240N26149 2022 53 WP MM HINNAMNOR 2022-09-02 12:00:00 NR 22.2000 124.700 PROVISIONAL 353 349 O_____________ tcvitals WP122022 22.2000 124.700 80 962 1 165 170 165 175 1001 350 14 2 306
2022240N26149 2022 53 WP MM HINNAMNOR 2022-09-02 15:00:00 NR 22.2625 124.670 PROVISIONAL 349 347 P_____________ WP122022 22.2625 124.670 77 964 1 152 190 160 152 1001 340 19 2 8
2022240N26149 2022 53 WP MM HINNAMNOR 2022-09-02 18:00:00 NR 22.4000 124.700 PROVISIONAL 347 340 O_____________ tcvitals WP122022 22.4000 124.700 74 967 1 140 210 155 130 1002 330 25 5 3
2022240N26149 2022 53 WP MM HINNAMNOR 2022-09-02 21:00:00 NR 22.7200 124.700 PROVISIONAL 340 324 P_____________ WP122022 22.7200 124.700 77 965 1 137 210 157 135 1002 345 25 7 0
2022240N26149 2022 53 WP MM HINNAMNOR 2022-09-03 00:00:00 NR 23.1000 124.700 PROVISIONAL 324 309 O_____________ tcvitals WP122022 23.1000 124.700 80 963 1 135 210 160 140 1002 360 25 7 359
2022240N26149 2022 53 WP MM HINNAMNOR 2022-09-03 03:00:00 NR 23.3925 124.700 PROVISIONAL 309 297 P_____________ WP122022 23.3925 124.700 82 961 1 147 202 150 142 1002 360 25 6 1
2022240N26149 2022 53 WP MM HINNAMNOR 2022-09-03 06:00:00 NR 23.7000 124.700 PROVISIONAL 297 287 O_____________ tcvitals WP122022 23.7000 124.700 84 959 2 160 195 140 145 1002 360 25 7 2
2022240N26149 2022 53 WP MM HINNAMNOR 2022-09-03 09:00:00 NR 24.1000 124.707 PROVISIONAL 287 278 P_____________ WP122022 24.1000 124.707 84 957 2 195 222 175 155 1002 352 25 8 1
2022240N26149 2022 53 WP MM HINNAMNOR 2022-09-03 12:00:00 NR 24.5000 124.700 PROVISIONAL 278 273 O_____________ tcvitals WP122022 24.5000 124.700 84 956 2 230 250 210 165 1003 345 25 7 356
2022240N26149 2022 53 WP MM HINNAMNOR 2022-09-03 15:00:00 NR 24.7850 124.657 PROVISIONAL 273 261 P_____________ WP122022 24.7850 124.657 86 954 2 227 242 180 160 1002 352 25 6 352
2022240N26149 2022 53 WP MM HINNAMNOR 2022-09-03 18:00:00 NR 25.1000 124.600 PROVISIONAL 261 257 O_____________ tcvitals WP122022 25.1000 124.600 89 952 2 225 235 150 155 1002 360 25 8 352
2022240N26149 2022 53 WP MM HINNAMNOR 2022-09-03 21:00:00 NR 25.5775 124.535 PROVISIONAL 259 259 P_____________ WP122022 25.5775 124.535 97 946 3 225 235 155 170 1003 380 15 10 355
2022240N26149 2022 53 WP MM HINNAMNOR 2022-09-04 00:00:00 NR 26.1000 124.500 PROVISIONAL 279 279 O_____________ tcvitals WP122022 26.1000 124.500 105 941 3 225 235 160 185 1004 400 5 10 359
2022240N26149 2022 53 WP MM HINNAMNOR 2022-09-04 03:00:00 NR 26.5650 124.535 PROVISIONAL 307 307 P_____________ WP122022 26.5650 124.535 105 942 3 192 200 155 167 1004 400 5 9 5
2022240N26149 2022 53 WP MM HINNAMNOR 2022-09-04 06:00:00 NR 27.0000 124.600 PROVISIONAL 328 315 O_____________ tcvitals WP122022 27.0000 124.600 105 944 3 160 165 150 150 1004 400 5 9 7
2022240N26149 2022 53 WP MM HINNAMNOR 2022-09-04 09:00:00 NR 27.4075 124.657 PROVISIONAL 320 306 P_____________ WP122022 27.4075 124.657 105 943 3 172 172 157 160 1004 395 5 8 6
2022240N26149 2022 53 WP MM HINNAMNOR 2022-09-04 12:00:00 NR 27.8000 124.700 PROVISIONAL 306 290 O_____________ tcvitals WP122022 27.8000 124.700 105 942 3 185 180 165 170 1004 390 5 8 2
2022240N26149 2022 53 WP MM HINNAMNOR 2022-09-04 15:00:00 NR 28.1700 124.693 PROVISIONAL 285 270 P_____________ WP122022 28.1700 124.693 107 939 3 205 197 157 150 1004 385 5 8 1
2022240N26149 2022 53 WP MM HINNAMNOR 2022-09-04 18:00:00 NR 28.6000 124.700 PROVISIONAL 270 262 O_____________ tcvitals WP122022 28.6000 124.700 109 937 3 225 215 150 130 1004 380 5 10 3
2022240N26149 2022 53 WP MM HINNAMNOR 2022-09-04 21:00:00 NR 29.1624 124.755 PROVISIONAL 271 271 P_____________ WP122022 29.1624 124.755 109 937 3 215 220 160 142 1004 380 5 12 8
2022240N26149 2022 53 WP MM HINNAMNOR 2022-09-05 00:00:00 NR 29.8000 124.900 PROVISIONAL 288 288 O_____________ tcvitals WP122022 29.8000 124.900 109 937 3 205 225 170 155 1004 380 5 13 15
2022240N26149 2022 53 WP MM HINNAMNOR 2022-09-05 03:00:00 NR 30.4348 125.141 PROVISIONAL 310 245 P_____________ WP122022 30.4348 125.141 107 939 3 220 220 172 160 1004 380 5 14 22
2022240N26149 2022 53 WP MM HINNAMNOR 2022-09-05 06:00:00 NR 31.1000 125.500 PROVISIONAL 245 171 O_____________ tcvitals WP122022 31.1000 125.500 105 941 3 235 215 175 165 1004 380 5 15 27
2022240N26149 2022 53 WP MM HINNAMNOR 2022-09-05 09:00:00 NR 31.7621 125.934 PROVISIONAL 160 78 P_____________ WP122022 31.7621 125.934 102 942 3 237 235 180 207 1004 380 7 16 31
2022240N26149 2022 53 WP MM HINNAMNOR 2022-09-05 12:00:00 NR 32.5000 126.500 PROVISIONAL 78 21 O_____________ tcvitals WP122022 32.5000 126.500 99 943 3 240 255 185 250 1004 380 10 19 33
2022240N26149 2022 53 WP MM HINNAMNOR 2022-09-05 15:00:00 NR 33.3384 127.134 PROVISIONAL 27 27 P_____________ WP122022 33.3384 127.134 94 947 2 242 232 197 247 1004 380 10 22 35
2022240N26149 2022 53 WP MM HINNAMNOR 2022-09-05 18:00:00 NR 34.3000 128.000 PROVISIONAL 38 0 O_____________ tcvitals WP122022 34.3000 128.000 89 952 2 245 210 210 245 1004 380 10 26 41
2022240N26149 2022 53 WP MM HINNAMNOR 2022-09-05 21:00:00 NR 35.2872 129.179 PROVISIONAL 0 0 P_____________ WP122022 35.2872 129.179 81 959 1 205 190 187 167 1004 380 15 31 44
2022240N26149 2022 53 WP MM HINNAMNOR 2022-09-06 00:00:00 NR 36.5000 130.600 PROVISIONAL 100 100 O_____________ tcvitals WP122022 36.5000 130.600 74 967 1 165 170 165 90 1004 380 20 37 41
2022240N26149 2022 53 WP MM HINNAMNOR 2022-09-06 03:00:00 NR 38.0541 132.148 PROVISIONAL 261 261 P_____________ WP122022 38.0541 132.148 72 968 1 185 165 155 100 1004 380 20 42 37
2022240N26149 2022 53 WP MM HINNAMNOR 2022-09-06 06:00:00 NR 39.8000 133.800 PROVISIONAL 329 O_____________ tcvitals WP122022 39.8000 133.800 70 970 1 205 160 145 110 1004 380 20 43 36

Digital Typhoon Data and Search

About IBTrACS Database

This database is a web-friendly format of International Best Track Archive for Climate Stewardship (IBTrACS), a global best track data archive curated by NOAA dating back to 1842.

Updated: 2022-09-23